sensor_id;sensor_type;location;lat;lon;timestamp;temperature;humidity
2190;DHT22;1101;51.056;7.262;2023-02-01T00:00:05;4.80;99.90
2190;DHT22;1101;51.056;7.262;2023-02-01T00:02:34;4.80;99.90
2190;DHT22;1101;51.056;7.262;2023-02-01T00:05:07;4.80;99.90
2190;DHT22;1101;51.056;7.262;2023-02-01T00:07:36;4.80;99.90
2190;DHT22;1101;51.056;7.262;2023-02-01T00:10:05;4.80;99.90
2190;DHT22;1101;51.056;7.262;2023-02-01T00:12:33;4.80;99.90
2190;DHT22;1101;51.056;7.262;2023-02-01T00:15:01;4.80;99.90
2190;DHT22;1101;51.056;7.262;2023-02-01T00:17:29;4.80;99.90
2190;DHT22;1101;51.056;7.262;2023-02-01T00:19:58;4.80;99.90
2190;DHT22;1101;51.056;7.262;2023-02-01T00:22:26;4.80;99.90
2190;DHT22;1101;51.056;7.262;2023-02-01T00:24:53;4.80;99.90
2190;DHT22;1101;51.056;7.262;2023-02-01T00:27:21;4.80;99.90
2190;DHT22;1101;51.056;7.262;2023-02-01T00:29:49;4.80;99.90
2190;DHT22;1101;51.056;7.262;2023-02-01T00:32:17;4.80;99.90
2190;DHT22;1101;51.056;7.262;2023-02-01T00:34:44;4.70;99.90
2190;DHT22;1101;51.056;7.262;2023-02-01T00:37:13;4.80;99.90
2190;DHT22;1101;51.056;7.262;2023-02-01T00:39:41;4.70;99.90
2190;DHT22;1101;51.056;7.262;2023-02-01T00:42:09;4.80;99.90
2190;DHT22;1101;51.056;7.262;2023-02-01T00:44:37;4.80;99.90
2190;DHT22;1101;51.056;7.262;2023-02-01T00:47:05;4.80;99.90
2190;DHT22;1101;51.056;7.262;2023-02-01T00:49:32;4.80;99.90
2190;DHT22;1101;51.056;7.262;2023-02-01T00:52:00;4.80;99.90
2190;DHT22;1101;51.056;7.262;2023-02-01T00:54:29;4.80;99.90
2190;DHT22;1101;51.056;7.262;2023-02-01T00:56:57;4.80;99.90
2190;DHT22;1101;51.056;7.262;2023-02-01T00:59:25;4.80;99.90
2190;DHT22;1101;51.056;7.262;2023-02-01T01:01:53;4.70;99.90
2190;DHT22;1101;51.056;7.262;2023-02-01T01:04:21;4.80;99.90
2190;DHT22;1101;51.056;7.262;2023-02-01T01:06:48;4.80;99.90
2190;DHT22;1101;51.056;7.262;2023-02-01T01:09:16;4.80;99.90
2190;DHT22;1101;51.056;7.262;2023-02-01T01:11:45;4.70;99.90
2190;DHT22;1101;51.056;7.262;2023-02-01T01:14:13;4.70;99.90
2190;DHT22;1101;51.056;7.262;2023-02-01T01:16:41;4.70;99.90
2190;DHT22;1101;51.056;7.262;2023-02-01T01:19:09;4.70;99.90
2190;DHT22;1101;51.056;7.262;2023-02-01T01:21:36;4.70;99.90
2190;DHT22;1101;51.056;7.262;2023-02-01T01:24:05;4.70;99.90
2190;DHT22;1101;51.056;7.262;2023-02-01T01:26:33;4.70;99.90
2190;DHT22;1101;51.056;7.262;2023-02-01T01:29:02;4.70;99.90
2190;DHT22;1101;51.056;7.262;2023-02-01T01:31:31;4.60;99.90
2190;DHT22;1101;51.056;7.262;2023-02-01T01:33:59;4.60;99.90
2190;DHT22;1101;51.056;7.262;2023-02-01T01:36:28;4.60;99.90
2190;DHT22;1101;51.056;7.262;2023-02-01T01:38:56;4.50;99.90
2190;DHT22;1101;51.056;7.262;2023-02-01T01:41:25;4.50;99.90
2190;DHT22;1101;51.056;7.262;2023-02-01T01:43:55;4.50;99.90
2190;DHT22;1101;51.056;7.262;2023-02-01T01:46:26;4.50;99.90
2190;DHT22;1101;51.056;7.262;2023-02-01T01:49:01;4.60;99.90
2190;DHT22;1101;51.056;7.262;2023-02-01T01:51:30;4.60;99.90
2190;DHT22;1101;51.056;7.262;2023-02-01T01:54:03;4.60;99.90
2190;DHT22;1101;51.056;7.262;2023-02-01T01:56:34;4.60;99.90
2190;DHT22;1101;51.056;7.262;2023-02-01T01:59:02;4.50;99.90
2190;DHT22;1101;51.056;7.262;2023-02-01T02:01:32;4.50;99.90
2190;DHT22;1101;51.056;7.262;2023-02-01T02:04:00;4.50;99.90
2190;DHT22;1101;51.056;7.262;2023-02-01T02:06:37;4.50;99.90
2190;DHT22;1101;51.056;7.262;2023-02-01T02:09:06;4.50;99.90
2190;DHT22;1101;51.056;7.262;2023-02-01T02:11:34;4.50;99.90
2190;DHT22;1101;51.056;7.262;2023-02-01T02:14:03;4.50;99.90
2190;DHT22;1101;51.056;7.262;2023-02-01T02:16:51;4.50;99.90
2190;DHT22;1101;51.056;7.262;2023-02-01T02:19:38;4.40;99.90
2190;DHT22;1101;51.056;7.262;2023-02-01T02:22:26;4.40;99.90
2190;DHT22;1101;51.056;7.262;2023-02-01T02:25:25;4.40;99.90
2190;DHT22;1101;51.056;7.262;2023-02-01T02:28:03;4.40;99.90
2190;DHT22;1101;51.056;7.262;2023-02-01T02:30:43;4.30;99.90
2190;DHT22;1101;51.056;7.262;2023-02-01T02:33:39;4.30;99.90
2190;DHT22;1101;51.056;7.262;2023-02-01T02:36:12;4.30;99.90
2190;DHT22;1101;51.056;7.262;2023-02-01T02:38:49;4.30;99.90
2190;DHT22;1101;51.056;7.262;2023-02-01T02:41:20;4.30;99.90
2190;DHT22;1101;51.056;7.262;2023-02-01T02:44:10;4.30;99.90
2190;DHT22;1101;51.056;7.262;2023-02-01T02:47:04;4.30;99.90
2190;DHT22;1101;51.056;7.262;2023-02-01T02:50:02;4.30;99.90
2190;DHT22;1101;51.056;7.262;2023-02-01T02:52:56;4.30;99.90
2190;DHT22;1101;51.056;7.262;2023-02-01T02:55:43;4.30;99.90
2190;DHT22;1101;51.056;7.262;2023-02-01T02:58:13;4.30;99.90
2190;DHT22;1101;51.056;7.262;2023-02-01T03:01:01;4.30;99.90
2190;DHT22;1101;51.056;7.262;2023-02-01T03:03:47;4.30;99.90
2190;DHT22;1101;51.056;7.262;2023-02-01T03:06:38;4.20;99.90
2190;DHT22;1101;51.056;7.262;2023-02-01T03:09:11;4.20;99.90
2190;DHT22;1101;51.056;7.262;2023-02-01T03:11:45;4.20;99.90
2190;DHT22;1101;51.056;7.262;2023-02-01T03:14:34;4.10;99.90
2190;DHT22;1101;51.056;7.262;2023-02-01T03:17:07;4.10;99.90
2190;DHT22;1101;51.056;7.262;2023-02-01T03:19:39;4.10;99.90
2190;DHT22;1101;51.056;7.262;2023-02-01T03:22:12;4.10;99.90
2190;DHT22;1101;51.056;7.262;2023-02-01T03:24:44;4.00;99.90
2190;DHT22;1101;51.056;7.262;2023-02-01T03:27:18;4.10;99.90
2190;DHT22;1101;51.056;7.262;2023-02-01T03:29:51;4.00;99.90
2190;DHT22;1101;51.056;7.262;2023-02-01T03:32:20;4.00;99.90
2190;DHT22;1101;51.056;7.262;2023-02-01T03:34:48;4.00;99.90
2190;DHT22;1101;51.056;7.262;2023-02-01T03:37:22;4.00;99.90
2190;DHT22;1101;51.056;7.262;2023-02-01T03:39:56;4.00;99.90
2190;DHT22;1101;51.056;7.262;2023-02-01T03:42:30;4.00;99.90
2190;DHT22;1101;51.056;7.262;2023-02-01T03:45:06;4.00;99.90
2190;DHT22;1101;51.056;7.262;2023-02-01T03:47:36;4.10;99.90
2190;DHT22;1101;51.056;7.262;2023-02-01T03:50:07;4.10;99.90
2190;DHT22;1101;51.056;7.262;2023-02-01T03:52:40;4.10;99.90
2190;DHT22;1101;51.056;7.262;2023-02-01T03:55:11;4.10;99.90
2190;DHT22;1101;51.056;7.262;2023-02-01T03:57:44;4.10;99.90
2190;DHT22;1101;51.056;7.262;2023-02-01T04:00:17;4.10;99.90
2190;DHT22;1101;51.056;7.262;2023-02-01T04:02:45;4.10;99.90
2190;DHT22;1101;51.056;7.262;2023-02-01T04:05:13;4.10;99.90
2190;DHT22;1101;51.056;7.262;2023-02-01T04:07:42;4.10;99.90
2190;DHT22;1101;51.056;7.262;2023-02-01T04:10:11;4.10;99.90
2190;DHT22;1101;51.056;7.262;2023-02-01T04:12:39;4.10;99.90
2190;DHT22;1101;51.056;7.262;2023-02-01T04:15:08;4.10;99.90
2190;DHT22;1101;51.056;7.262;2023-02-01T04:17:36;4.10;99.90
2190;DHT22;1101;51.056;7.262;2023-02-01T04:20:03;4.10;99.90
2190;DHT22;1101;51.056;7.262;2023-02-01T04:22:32;4.10;99.90
2190;DHT22;1101;51.056;7.262;2023-02-01T04:25:01;4.10;99.90
2190;DHT22;1101;51.056;7.262;2023-02-01T04:27:29;4.20;99.90
2190;DHT22;1101;51.056;7.262;2023-02-01T04:29:57;4.20;99.90
2190;DHT22;1101;51.056;7.262;2023-02-01T04:32:24;4.20;99.90
2190;DHT22;1101;51.056;7.262;2023-02-01T04:34:52;4.20;99.90
2190;DHT22;1101;51.056;7.262;2023-02-01T04:37:20;4.20;99.90
2190;DHT22;1101;51.056;7.262;2023-02-01T04:39:48;4.20;99.90
2190;DHT22;1101;51.056;7.262;2023-02-01T04:42:17;4.20;99.90
2190;DHT22;1101;51.056;7.262;2023-02-01T04:44:44;4.20;99.90
2190;DHT22;1101;51.056;7.262;2023-02-01T04:47:12;4.20;99.90
2190;DHT22;1101;51.056;7.262;2023-02-01T04:49:41;4.20;99.90
2190;DHT22;1101;51.056;7.262;2023-02-01T04:52:09;4.20;99.90
2190;DHT22;1101;51.056;7.262;2023-02-01T04:54:36;4.20;99.90
2190;DHT22;1101;51.056;7.262;2023-02-01T04:57:04;4.10;99.90
2190;DHT22;1101;51.056;7.262;2023-02-01T04:59:33;4.10;99.90
2190;DHT22;1101;51.056;7.262;2023-02-01T05:02:01;4.10;99.90
2190;DHT22;1101;51.056;7.262;2023-02-01T05:04:29;4.10;99.90
2190;DHT22;1101;51.056;7.262;2023-02-01T05:06:57;4.10;99.90
2190;DHT22;1101;51.056;7.262;2023-02-01T05:09:24;4.10;99.90
2190;DHT22;1101;51.056;7.262;2023-02-01T05:11:52;4.10;99.90
2190;DHT22;1101;51.056;7.262;2023-02-01T05:14:39;4.10;99.90
2190;DHT22;1101;51.056;7.262;2023-02-01T05:17:07;4.10;99.90
2190;DHT22;1101;51.056;7.262;2023-02-01T05:19:34;4.10;99.90
2190;DHT22;1101;51.056;7.262;2023-02-01T05:22:02;4.10;99.90
2190;DHT22;1101;51.056;7.262;2023-02-01T05:24:30;4.10;99.90
2190;DHT22;1101;51.056;7.262;2023-02-01T05:26:58;4.20;99.90
2190;DHT22;1101;51.056;7.262;2023-02-01T05:29:25;4.10;99.90
2190;DHT22;1101;51.056;7.262;2023-02-01T05:31:54;4.20;99.90
2190;DHT22;1101;51.056;7.262;2023-02-01T05:34:26;4.10;99.90
2190;DHT22;1101;51.056;7.262;2023-02-01T05:36:54;4.20;99.90
2190;DHT22;1101;51.056;7.262;2023-02-01T05:39:22;4.20;99.90
2190;DHT22;1101;51.056;7.262;2023-02-01T05:41:49;4.20;99.90
2190;DHT22;1101;51.056;7.262;2023-02-01T05:44:17;4.20;99.90
2190;DHT22;1101;51.056;7.262;2023-02-01T05:46:45;4.20;99.90
2190;DHT22;1101;51.056;7.262;2023-02-01T05:49:16;4.20;99.90
2190;DHT22;1101;51.056;7.262;2023-02-01T05:51:44;4.20;99.90
2190;DHT22;1101;51.056;7.262;2023-02-01T05:54:12;4.20;99.90
2190;DHT22;1101;51.056;7.262;2023-02-01T05:56:40;4.20;99.90
2190;DHT22;1101;51.056;7.262;2023-02-01T05:59:08;4.20;99.90
2190;DHT22;1101;51.056;7.262;2023-02-01T06:01:36;4.20;99.90
2190;DHT22;1101;51.056;7.262;2023-02-01T06:04:04;4.20;99.90
2190;DHT22;1101;51.056;7.262;2023-02-01T06:06:34;4.20;99.90
2190;DHT22;1101;51.056;7.262;2023-02-01T06:09:03;4.20;99.90
2190;DHT22;1101;51.056;7.262;2023-02-01T06:11:31;4.20;99.90
2190;DHT22;1101;51.056;7.262;2023-02-01T06:13:59;4.20;99.90
2190;DHT22;1101;51.056;7.262;2023-02-01T06:16:27;4.20;99.90
2190;DHT22;1101;51.056;7.262;2023-02-01T06:18:55;4.20;99.90
2190;DHT22;1101;51.056;7.262;2023-02-01T06:21:22;4.20;99.90
2190;DHT22;1101;51.056;7.262;2023-02-01T06:23:52;4.20;99.90
2190;DHT22;1101;51.056;7.262;2023-02-01T06:26:20;4.20;99.90
2190;DHT22;1101;51.056;7.262;2023-02-01T06:28:48;4.20;99.90
2190;DHT22;1101;51.056;7.262;2023-02-01T06:31:16;4.20;99.90
2190;DHT22;1101;51.056;7.262;2023-02-01T06:33:44;4.20;99.90
2190;DHT22;1101;51.056;7.262;2023-02-01T06:36:13;4.20;99.90
2190;DHT22;1101;51.056;7.262;2023-02-01T06:38:42;4.20;99.90
2190;DHT22;1101;51.056;7.262;2023-02-01T06:41:11;4.20;99.90
2190;DHT22;1101;51.056;7.262;2023-02-01T06:43:39;4.20;99.90
2190;DHT22;1101;51.056;7.262;2023-02-01T06:46:08;4.20;99.90
2190;DHT22;1101;51.056;7.262;2023-02-01T06:48:37;4.20;99.90
2190;DHT22;1101;51.056;7.262;2023-02-01T06:51:05;4.20;99.90
2190;DHT22;1101;51.056;7.262;2023-02-01T06:53:32;4.20;99.90
2190;DHT22;1101;51.056;7.262;2023-02-01T06:56:02;4.20;99.90
2190;DHT22;1101;51.056;7.262;2023-02-01T06:58:32;4.20;99.90
2190;DHT22;1101;51.056;7.262;2023-02-01T07:01:04;4.20;99.90
2190;DHT22;1101;51.056;7.262;2023-02-01T07:03:32;4.20;99.90
2190;DHT22;1101;51.056;7.262;2023-02-01T07:06:00;4.20;99.90
2190;DHT22;1101;51.056;7.262;2023-02-01T07:08:28;4.20;99.90
2190;DHT22;1101;51.056;7.262;2023-02-01T07:10:56;4.20;99.90
2190;DHT22;1101;51.056;7.262;2023-02-01T07:13:28;4.20;99.90
2190;DHT22;1101;51.056;7.262;2023-02-01T07:15:59;4.20;99.90
2190;DHT22;1101;51.056;7.262;2023-02-01T07:18:27;4.20;99.90
2190;DHT22;1101;51.056;7.262;2023-02-01T07:20:55;4.20;99.90
2190;DHT22;1101;51.056;7.262;2023-02-01T07:23:23;4.20;99.90
2190;DHT22;1101;51.056;7.262;2023-02-01T07:25:53;4.20;99.90
2190;DHT22;1101;51.056;7.262;2023-02-01T07:28:21;4.20;99.90
2190;DHT22;1101;51.056;7.262;2023-02-01T07:30:49;4.20;99.90
2190;DHT22;1101;51.056;7.262;2023-02-01T07:33:21;4.20;99.90
2190;DHT22;1101;51.056;7.262;2023-02-01T07:35:50;4.20;99.90
2190;DHT22;1101;51.056;7.262;2023-02-01T07:38:18;4.20;99.90
2190;DHT22;1101;51.056;7.262;2023-02-01T07:40:48;4.20;99.90
2190;DHT22;1101;51.056;7.262;2023-02-01T07:43:16;4.20;99.90
2190;DHT22;1101;51.056;7.262;2023-02-01T07:45:50;4.20;99.90
2190;DHT22;1101;51.056;7.262;2023-02-01T07:48:19;4.20;99.90
2190;DHT22;1101;51.056;7.262;2023-02-01T07:50:47;4.20;99.90
2190;DHT22;1101;51.056;7.262;2023-02-01T07:53:15;4.20;99.90
2190;DHT22;1101;51.056;7.262;2023-02-01T07:55:42;4.20;99.90
2190;DHT22;1101;51.056;7.262;2023-02-01T07:58:10;4.20;99.90
2190;DHT22;1101;51.056;7.262;2023-02-01T08:00:38;4.20;99.90
2190;DHT22;1101;51.056;7.262;2023-02-01T08:03:24;4.20;99.90
2190;DHT22;1101;51.056;7.262;2023-02-01T08:05:53;4.20;99.90
2190;DHT22;1101;51.056;7.262;2023-02-01T08:08:22;4.20;99.90
2190;DHT22;1101;51.056;7.262;2023-02-01T08:10:50;4.20;99.90
2190;DHT22;1101;51.056;7.262;2023-02-01T08:13:18;4.20;99.90
2190;DHT22;1101;51.056;7.262;2023-02-01T08:15:45;4.10;99.90
2190;DHT22;1101;51.056;7.262;2023-02-01T08:18:13;4.10;99.90
2190;DHT22;1101;51.056;7.262;2023-02-01T08:20:44;4.20;99.90
2190;DHT22;1101;51.056;7.262;2023-02-01T08:23:12;4.10;99.90
2190;DHT22;1101;51.056;7.262;2023-02-01T08:25:40;4.10;99.90
2190;DHT22;1101;51.056;7.262;2023-02-01T08:28:08;4.20;99.90
2190;DHT22;1101;51.056;7.262;2023-02-01T08:30:36;4.20;99.90
2190;DHT22;1101;51.056;7.262;2023-02-01T08:33:05;4.20;99.90
2190;DHT22;1101;51.056;7.262;2023-02-01T08:35:34;4.20;99.90
2190;DHT22;1101;51.056;7.262;2023-02-01T08:38:11;4.20;99.90
2190;DHT22;1101;51.056;7.262;2023-02-01T08:40:38;4.20;99.90
2190;DHT22;1101;51.056;7.262;2023-02-01T08:43:07;4.20;99.90
2190;DHT22;1101;51.056;7.262;2023-02-01T08:45:35;4.20;99.90
2190;DHT22;1101;51.056;7.262;2023-02-01T08:48:03;4.20;99.90
2190;DHT22;1101;51.056;7.262;2023-02-01T08:50:31;4.20;99.90
2190;DHT22;1101;51.056;7.262;2023-02-01T08:52:59;4.20;99.90
2190;DHT22;1101;51.056;7.262;2023-02-01T08:55:28;4.20;99.90
2190;DHT22;1101;51.056;7.262;2023-02-01T08:57:56;4.20;99.90
2190;DHT22;1101;51.056;7.262;2023-02-01T09:00:24;4.20;99.90
2190;DHT22;1101;51.056;7.262;2023-02-01T09:02:52;4.20;99.90
2190;DHT22;1101;51.056;7.262;2023-02-01T09:05:20;4.20;99.90
2190;DHT22;1101;51.056;7.262;2023-02-01T09:07:48;4.20;99.90
2190;DHT22;1101;51.056;7.262;2023-02-01T09:10:17;4.20;99.90
2190;DHT22;1101;51.056;7.262;2023-02-01T09:13:01;4.20;99.90
2190;DHT22;1101;51.056;7.262;2023-02-01T09:15:29;4.20;99.90
2190;DHT22;1101;51.056;7.262;2023-02-01T09:17:57;4.20;99.90
2190;DHT22;1101;51.056;7.262;2023-02-01T09:20:25;4.20;99.90
2190;DHT22;1101;51.056;7.262;2023-02-01T09:22:54;4.20;99.90
2190;DHT22;1101;51.056;7.262;2023-02-01T09:25:21;4.20;99.90
2190;DHT22;1101;51.056;7.262;2023-02-01T09:27:49;4.20;99.90
2190;DHT22;1101;51.056;7.262;2023-02-01T09:30:19;4.30;99.90
2190;DHT22;1101;51.056;7.262;2023-02-01T09:32:47;4.30;99.90
2190;DHT22;1101;51.056;7.262;2023-02-01T09:35:15;4.30;99.90
2190;DHT22;1101;51.056;7.262;2023-02-01T09:37:42;4.30;99.90
2190;DHT22;1101;51.056;7.262;2023-02-01T09:40:14;4.30;99.90
2190;DHT22;1101;51.056;7.262;2023-02-01T09:43:05;4.30;99.90
2190;DHT22;1101;51.056;7.262;2023-02-01T09:45:42;4.30;99.90
2190;DHT22;1101;51.056;7.262;2023-02-01T09:48:15;4.30;99.90
2190;DHT22;1101;51.056;7.262;2023-02-01T09:50:48;4.30;99.90
2190;DHT22;1101;51.056;7.262;2023-02-01T09:53:21;4.40;99.90
2190;DHT22;1101;51.056;7.262;2023-02-01T09:55:53;4.40;99.90
2190;DHT22;1101;51.056;7.262;2023-02-01T09:58:25;4.40;99.90
2190;DHT22;1101;51.056;7.262;2023-02-01T10:00:57;4.40;99.90
2190;DHT22;1101;51.056;7.262;2023-02-01T10:03:28;4.40;99.90
2190;DHT22;1101;51.056;7.262;2023-02-01T10:06:12;4.40;99.90
2190;DHT22;1101;51.056;7.262;2023-02-01T10:09:02;4.40;99.90
2190;DHT22;1101;51.056;7.262;2023-02-01T10:11:42;4.50;99.90
2190;DHT22;1101;51.056;7.262;2023-02-01T10:14:36;4.40;99.90
2190;DHT22;1101;51.056;7.262;2023-02-01T10:17:16;4.50;99.90
2190;DHT22;1101;51.056;7.262;2023-02-01T10:19:54;4.50;99.90
2190;DHT22;1101;51.056;7.262;2023-02-01T10:22:33;4.50;99.90
2190;DHT22;1101;51.056;7.262;2023-02-01T10:25:26;4.50;99.90
2190;DHT22;1101;51.056;7.262;2023-02-01T10:27:54;4.50;99.90
2190;DHT22;1101;51.056;7.262;2023-02-01T10:30:25;4.50;99.90
2190;DHT22;1101;51.056;7.262;2023-02-01T10:33:12;4.50;99.90
2190;DHT22;1101;51.056;7.262;2023-02-01T10:35:44;4.50;99.90
2190;DHT22;1101;51.056;7.262;2023-02-01T10:38:18;4.50;99.90
2190;DHT22;1101;51.056;7.262;2023-02-01T10:40:48;4.50;99.90
2190;DHT22;1101;51.056;7.262;2023-02-01T10:43:16;4.60;99.90
2190;DHT22;1101;51.056;7.262;2023-02-01T10:45:44;4.60;99.90
2190;DHT22;1101;51.056;7.262;2023-02-01T10:48:14;4.70;99.90
2190;DHT22;1101;51.056;7.262;2023-02-01T10:50:48;4.70;99.90
2190;DHT22;1101;51.056;7.262;2023-02-01T10:53:21;4.80;99.90
2190;DHT22;1101;51.056;7.262;2023-02-01T10:55:52;4.80;99.90
2190;DHT22;1101;51.056;7.262;2023-02-01T10:58:27;4.90;99.90
2190;DHT22;1101;51.056;7.262;2023-02-01T11:00:57;5.00;99.90
2190;DHT22;1101;51.056;7.262;2023-02-01T11:03:39;5.00;99.90
2190;DHT22;1101;51.056;7.262;2023-02-01T11:06:24;5.10;99.90
2190;DHT22;1101;51.056;7.262;2023-02-01T11:08:54;5.10;99.90
2190;DHT22;1101;51.056;7.262;2023-02-01T11:11:22;5.10;99.90
2190;DHT22;1101;51.056;7.262;2023-02-01T11:13:56;5.10;99.90
2190;DHT22;1101;51.056;7.262;2023-02-01T11:16:37;5.20;99.90
2190;DHT22;1101;51.056;7.262;2023-02-01T11:19:06;5.20;99.90
2190;DHT22;1101;51.056;7.262;2023-02-01T11:21:34;5.20;99.90
2190;DHT22;1101;51.056;7.262;2023-02-01T11:24:05;5.30;99.90
2190;DHT22;1101;51.056;7.262;2023-02-01T11:26:40;5.30;99.90
2190;DHT22;1101;51.056;7.262;2023-02-01T11:29:11;5.40;99.90
2190;DHT22;1101;51.056;7.262;2023-02-01T11:31:41;5.40;99.90
2190;DHT22;1101;51.056;7.262;2023-02-01T11:34:13;5.40;99.90
2190;DHT22;1101;51.056;7.262;2023-02-01T11:36:45;5.50;99.90
2190;DHT22;1101;51.056;7.262;2023-02-01T11:39:23;5.50;99.90
2190;DHT22;1101;51.056;7.262;2023-02-01T11:41:58;5.50;99.90
2190;DHT22;1101;51.056;7.262;2023-02-01T11:44:32;5.50;99.90
2190;DHT22;1101;51.056;7.262;2023-02-01T11:47:22;5.50;99.90
2190;DHT22;1101;51.056;7.262;2023-02-01T11:49:53;5.50;99.90
2190;DHT22;1101;51.056;7.262;2023-02-01T11:52:45;5.50;99.90
2190;DHT22;1101;51.056;7.262;2023-02-01T11:55:32;5.50;99.90
2190;DHT22;1101;51.056;7.262;2023-02-01T11:58:14;5.50;99.90
2190;DHT22;1101;51.056;7.262;2023-02-01T12:01:00;5.60;99.90
2190;DHT22;1101;51.056;7.262;2023-02-01T12:03:59;5.60;99.90
2190;DHT22;1101;51.056;7.262;2023-02-01T12:06:39;5.60;99.90
2190;DHT22;1101;51.056;7.262;2023-02-01T12:09:21;5.60;99.90
2190;DHT22;1101;51.056;7.262;2023-02-01T12:12:00;5.60;99.90
2190;DHT22;1101;51.056;7.262;2023-02-01T12:14:40;5.60;99.90
2190;DHT22;1101;51.056;7.262;2023-02-01T12:17:38;5.60;99.90
2190;DHT22;1101;51.056;7.262;2023-02-01T12:20:21;5.60;99.90
2190;DHT22;1101;51.056;7.262;2023-02-01T12:23:05;5.60;99.90
2190;DHT22;1101;51.056;7.262;2023-02-01T12:25:44;5.50;99.90
2190;DHT22;1101;51.056;7.262;2023-02-01T12:28:36;5.50;99.90
2190;DHT22;1101;51.056;7.262;2023-02-01T12:31:19;5.50;99.90
2190;DHT22;1101;51.056;7.262;2023-02-01T12:34:05;5.50;99.90
2190;DHT22;1101;51.056;7.262;2023-02-01T12:36:42;5.40;99.90
2190;DHT22;1101;51.056;7.262;2023-02-01T12:39:21;5.40;99.90
2190;DHT22;1101;51.056;7.262;2023-02-01T12:41:55;5.40;99.90
2190;DHT22;1101;51.056;7.262;2023-02-01T12:44:32;5.40;99.90
2190;DHT22;1101;51.056;7.262;2023-02-01T12:47:06;5.40;99.90
2190;DHT22;1101;51.056;7.262;2023-02-01T12:49:44;5.40;99.90
2190;DHT22;1101;51.056;7.262;2023-02-01T12:52:18;5.40;99.90
2190;DHT22;1101;51.056;7.262;2023-02-01T12:54:53;5.40;99.90
2190;DHT22;1101;51.056;7.262;2023-02-01T12:57:26;5.40;99.90
2190;DHT22;1101;51.056;7.262;2023-02-01T13:00:02;5.40;99.90
2190;DHT22;1101;51.056;7.262;2023-02-01T13:02:37;5.40;99.90
2190;DHT22;1101;51.056;7.262;2023-02-01T13:05:13;5.40;99.90
2190;DHT22;1101;51.056;7.262;2023-02-01T13:07:48;5.40;99.90
2190;DHT22;1101;51.056;7.262;2023-02-01T13:10:21;5.40;99.90
2190;DHT22;1101;51.056;7.262;2023-02-01T13:12:54;5.40;99.90
2190;DHT22;1101;51.056;7.262;2023-02-01T13:15:27;5.30;99.90
2190;DHT22;1101;51.056;7.262;2023-02-01T13:18:00;5.30;99.90
2190;DHT22;1101;51.056;7.262;2023-02-01T13:20:31;5.30;99.90
2190;DHT22;1101;51.056;7.262;2023-02-01T13:23:04;5.30;99.90
2190;DHT22;1101;51.056;7.262;2023-02-01T13:25:37;5.20;99.90
2190;DHT22;1101;51.056;7.262;2023-02-01T13:28:12;5.20;99.90
2190;DHT22;1101;51.056;7.262;2023-02-01T13:30:55;5.20;99.90
2190;DHT22;1101;51.056;7.262;2023-02-01T13:33:36;5.20;99.90
2190;DHT22;1101;51.056;7.262;2023-02-01T13:36:39;5.20;99.90
2190;DHT22;1101;51.056;7.262;2023-02-01T13:42:17;5.20;99.90
2190;DHT22;1101;51.056;7.262;2023-02-01T13:44:48;5.20;99.90
2190;DHT22;1101;51.056;7.262;2023-02-01T13:47:24;5.20;99.90
2190;DHT22;1101;51.056;7.262;2023-02-01T13:49:55;5.20;99.90
2190;DHT22;1101;51.056;7.262;2023-02-01T13:52:28;5.20;99.90
2190;DHT22;1101;51.056;7.262;2023-02-01T13:55:15;5.20;99.90
2190;DHT22;1101;51.056;7.262;2023-02-01T13:57:45;5.20;99.90
2190;DHT22;1101;51.056;7.262;2023-02-01T14:00:24;5.20;99.90
2190;DHT22;1101;51.056;7.262;2023-02-01T14:05:57;5.20;99.90
2190;DHT22;1101;51.056;7.262;2023-02-01T14:08:39;5.20;99.90
2190;DHT22;1101;51.056;7.262;2023-02-01T14:11:31;5.20;99.90
2190;DHT22;1101;51.056;7.262;2023-02-01T14:17:37;5.20;99.90
2190;DHT22;1101;51.056;7.262;2023-02-01T14:20:38;5.20;99.90
2190;DHT22;1101;51.056;7.262;2023-02-01T14:23:12;5.20;99.90
2190;DHT22;1101;51.056;7.262;2023-02-01T14:25:41;5.20;99.90
2190;DHT22;1101;51.056;7.262;2023-02-01T14:28:22;5.20;99.90
2190;DHT22;1101;51.056;7.262;2023-02-01T14:30:53;5.20;99.90
2190;DHT22;1101;51.056;7.262;2023-02-01T14:33:25;5.20;99.90
2190;DHT22;1101;51.056;7.262;2023-02-01T14:36:08;5.30;99.90
2190;DHT22;1101;51.056;7.262;2023-02-01T14:38:37;5.30;99.90
2190;DHT22;1101;51.056;7.262;2023-02-01T14:41:18;5.30;99.90
2190;DHT22;1101;51.056;7.262;2023-02-01T14:43:51;5.30;99.90
2190;DHT22;1101;51.056;7.262;2023-02-01T14:49:55;5.30;99.90
2190;DHT22;1101;51.056;7.262;2023-02-01T14:52:30;5.30;99.90
2190;DHT22;1101;51.056;7.262;2023-02-01T14:55:03;5.30;99.90
2190;DHT22;1101;51.056;7.262;2023-02-01T14:57:35;5.40;99.90
2190;DHT22;1101;51.056;7.262;2023-02-01T15:00:19;5.40;99.90
2190;DHT22;1101;51.056;7.262;2023-02-01T15:02:49;5.40;99.90
2190;DHT22;1101;51.056;7.262;2023-02-01T15:05:30;5.40;99.90
2190;DHT22;1101;51.056;7.262;2023-02-01T15:08:04;5.40;99.90
2190;DHT22;1101;51.056;7.262;2023-02-01T15:10:40;5.40;99.90
2190;DHT22;1101;51.056;7.262;2023-02-01T15:13:19;5.40;99.90
2190;DHT22;1101;51.056;7.262;2023-02-01T15:16:01;5.40;99.90
2190;DHT22;1101;51.056;7.262;2023-02-01T15:18:30;5.40;99.90
2190;DHT22;1101;51.056;7.262;2023-02-01T15:21:01;5.40;99.90
2190;DHT22;1101;51.056;7.262;2023-02-01T15:23:49;5.40;99.90
2190;DHT22;1101;51.056;7.262;2023-02-01T15:26:27;5.40;99.90
2190;DHT22;1101;51.056;7.262;2023-02-01T15:28:56;5.40;99.90
2190;DHT22;1101;51.056;7.262;2023-02-01T15:31:32;5.40;99.90
2190;DHT22;1101;51.056;7.262;2023-02-01T15:34:00;5.40;99.90
2190;DHT22;1101;51.056;7.262;2023-02-01T15:36:30;5.40;99.90
2190;DHT22;1101;51.056;7.262;2023-02-01T15:39:17;5.40;99.90
2190;DHT22;1101;51.056;7.262;2023-02-01T15:41:48;5.40;99.90
2190;DHT22;1101;51.056;7.262;2023-02-01T15:44:27;5.50;99.90
2190;DHT22;1101;51.056;7.262;2023-02-01T15:46:56;5.50;99.90
2190;DHT22;1101;51.056;7.262;2023-02-01T15:49:27;5.50;99.90
2190;DHT22;1101;51.056;7.262;2023-02-01T15:51:59;5.50;99.90
2190;DHT22;1101;51.056;7.262;2023-02-01T15:54:29;5.50;99.90
2190;DHT22;1101;51.056;7.262;2023-02-01T15:57:00;5.50;99.90
2190;DHT22;1101;51.056;7.262;2023-02-01T15:59:32;5.50;99.90
2190;DHT22;1101;51.056;7.262;2023-02-01T16:02:00;5.50;99.90
2190;DHT22;1101;51.056;7.262;2023-02-01T16:04:29;5.50;99.90
2190;DHT22;1101;51.056;7.262;2023-02-01T16:07:00;5.60;99.90
2190;DHT22;1101;51.056;7.262;2023-02-01T16:09:37;5.60;99.90
2190;DHT22;1101;51.056;7.262;2023-02-01T16:12:26;5.50;99.90
2190;DHT22;1101;51.056;7.262;2023-02-01T16:14:56;5.50;99.90
2190;DHT22;1101;51.056;7.262;2023-02-01T16:17:23;5.60;99.90
2190;DHT22;1101;51.056;7.262;2023-02-01T16:19:51;5.60;99.90
2190;DHT22;1101;51.056;7.262;2023-02-01T16:22:20;5.60;99.90
2190;DHT22;1101;51.056;7.262;2023-02-01T16:24:48;5.60;99.90
2190;DHT22;1101;51.056;7.262;2023-02-01T16:27:16;5.50;99.90
2190;DHT22;1101;51.056;7.262;2023-02-01T16:29:44;5.60;99.90
2190;DHT22;1101;51.056;7.262;2023-02-01T16:32:15;5.60;99.90
2190;DHT22;1101;51.056;7.262;2023-02-01T16:34:44;5.60;99.90
2190;DHT22;1101;51.056;7.262;2023-02-01T16:37:20;5.60;99.90
2190;DHT22;1101;51.056;7.262;2023-02-01T16:39:50;5.60;99.90
2190;DHT22;1101;51.056;7.262;2023-02-01T16:42:19;5.60;99.90
2190;DHT22;1101;51.056;7.262;2023-02-01T16:44:46;5.70;99.90
2190;DHT22;1101;51.056;7.262;2023-02-01T16:47:16;5.70;99.90
2190;DHT22;1101;51.056;7.262;2023-02-01T16:49:48;5.70;99.90
2190;DHT22;1101;51.056;7.262;2023-02-01T16:52:18;5.70;99.90
2190;DHT22;1101;51.056;7.262;2023-02-01T16:54:47;5.70;99.90
2190;DHT22;1101;51.056;7.262;2023-02-01T16:57:18;5.70;99.90
2190;DHT22;1101;51.056;7.262;2023-02-01T16:59:49;5.70;99.90
2190;DHT22;1101;51.056;7.262;2023-02-01T17:02:19;5.70;99.90
2190;DHT22;1101;51.056;7.262;2023-02-01T17:04:48;5.70;99.90